Terminal Aerodrome Forecast
Issued by NWS Mt. Holly, NJ

Home | Current Version | Previous Version | Text Only | Print | Product List | Glossary On
Versions: 1 2 3 4 5 6 7 8 9 10 11 12 13 14 15 16 17 18 19 20 21 22 23 24 25
891
FTUS41 KPHI 050540
TAFABE
TAF
KABE 050540Z 0506/0606 07006KT P6SM OVC012
      TEMPO 0506/0509 5SM -DZ BR BKN009
     FM051100 05006KT P6SM OVC015
     FM051400 04008KT P6SM OVC025
     FM051800 04007KT P6SM OVC035=

USA.gov is the U.S. government's official web portal to all federal, state and local government web resources and services.